Shafter, CA

3:25 PM PDT en Septiembre 23, 2014 (GMT -0700)
NF6P - Riverlakes (NW) | Change Station
CLOSE
Current Station
Estación meteorológica personal
Location: Bakersfield, CA
Altura: 422 ft
Estaciones meteorológicas cercanas

Alt 422 ft 35.39 °N, 119.10 °W | Updated 10 seconds ago

Despejado
Despejado
94.1 ° F
Sensación térmica 95 ° F
N
1.1
Viento Variable Viento desde ONO
Gusts 5.0 mph

Hoy
Alta -- | Baja -- ° F
--% Posibilidad de precipitaciones
Ayer
Alta -- | Baja -- ° F
Precip. -- pul
6:45 AM 6:52 PM
Creciente menguante, 0% visible
Presión 29.86 pul
Visibilidad 10.0 Millas
Nubes Despejado
Índice de calor 95 ° F
Punto de rocío 62 ° F
Humedad 35%
Precipitaciones 0.00 pul
Espesor de la nieve 0 in , 0 in
UV 6 de una escala de 12
Polen 6.80 de una escala de 12
Ozono Moderada
PM2.5 Moderada
Flu Activity No disponible.
METAR KBFL 232154Z 30007KT 10SM CLR 33/12 A2987 RMK AO2 SLP109 T03280122

More Conditions Fewer Conditions

Presión 29.86 pul
Visibilidad 10.0 Millas
Nubes Despejado
Índice de calor 95 ° F
Punto de rocío 62 ° F
Humedad 35%
Precipitaciones 0.00 pul
Espesor de la nieve 0 in , 0 in
UV 6 de una escala de 12
Polen 6.80 de una escala de 12
Ozono Moderada
PM2.5 Moderada
Flu Activity No disponible.
METAR KBFL 232154Z 30007KT 10SM CLR 33/12 A2987 RMK AO2 SLP109 T03280122

More Conditions Fewer Conditions

10-Day Weather Forecast

Almanac

Astronomía

Sep. 23, 2014 Salida Puesta
Hora real 6:45 AM PDT 6:52 PM PDT
Crepúsculo civil 6:20 AM PDT 7:17 PM PDT
Crepúsculo náutico 5:50 AM PDT 7:47 PM PDT
Crepúsculo astronómico 5:20 AM PDT 8:17 PM PDT
Luna 6:15 AM PDT 6:34 PM PDT
Horas de luz 12h 57m
Horas de luz
12h 06m
Tomorrow will be 2m 14s shorter.
Creciente menguante, 0% of the Moon is Illuminated
Hoy
Creciente menguante
Sep 24
Nueva
Oct 1
Cuarto creciente
Oct 8
Luna llena
Oct 15
Cuarto menguante

Extremos de hoy

Máximos del estado Bajos del estado

Community

WunderPhotos

Upload Photos

1,755,801 ¡fotos cargadas!

WunderBlogs® & News

Nearby

Calidad del aire

  Calidad del aire Índice AQ Contaminante
Ayer Moderada
OZONE
Ayer Buena
PM2.5
Real Moderada
OZONE
Real Moderada
PM2.5
Martes Moderada
OZONE
Miércoles Moderada
OZONE
Jueves Moderada
OZONE
Viernes Moderada
OZONE
Sábado Moderada
OZONE

Grosos de nieve

Estación Profundido Altura
Summit Meadow 0 in 9122 ft
Adin Mountain 0 in 6200 ft
CSS Lab 0 in 6900 ft
Leavitt Meadows 0 in 7200 ft

Actividad de terremotos

Ciudad Distance Mag. Tiempo y dato
No hay informes recientes de la actividad sísmica.
Magnitud mínima muestra es 2,5.

Temperaturas de aguas costeras

Lugar Temperatura
Sin partes meteorológicos de las estaciones

Estaciones meteorológicas cercanas